Dades de l'estació automàtica la Granada

?
?
Resum diari 21:00 TU
Dades diàries de l'estació meteorològica
Temperatura mitjana 20.3 °C
Temperatura màxima 28.3 °C 13:55 TU
Temperatura mínima 14.5 °C 5:31 TU
Humitat relativa mitjana 80%
Precipitació acumulada 0.0 mm
Ratxa màxima del vent (2 m) 25.2 km/h - 215º 15:54 TU
Irradiació solar global 19.2 MJ/m2

El tram horari està expressat en Temps Universal (TU). Cal sumar una hora en horari d'hivern i dues en horari d'estiu per passar a l'hora oficial.

la Granada

Metadades estació meteorol´gica
Municipi La Granada
Comarca Alt Penedès
Altitud 240 m
Data alta 25.12.1999
Estat actual Operativa
Dades de període
Període
TU
TM
°C
TX
°C
TN
°C
HRM
%
PPT
mm
VVM (2 m)
km/h
DVM (2 m)
graus
VVX (2 m)
km/h
RS
W/m2
00:00 - 00:30 15.2 15.6 14.9 100 0.0 1.8 7 4.3 0
00:30 - 01:00 15.6 15.7 15.4 100 0.0 2.5 359 5.8 0
01:00 - 01:30 15.6 15.8 15.4 100 0.0 2.5 349 7.6 0
01:30 - 02:00 15.7 15.9 15.6 100 0.0 3.2 360 7.2 0
02:00 - 02:30 15.3 15.6 15.2 100 0.0 3.2 5 7.2 0
02:30 - 03:00 15.3 15.4 15.2 100 0.0 3.2 352 7.6 0
03:00 - 03:30 15.0 15.1 14.9 100 0.0 1.8 353 4.7 0
03:30 - 04:00 14.9 15.1 14.8 100 0.0 2.2 4 5.8 0
04:00 - 04:30 14.7 14.8 14.6 100 0.0 2.9 8 7.6 0
04:30 - 05:00 14.9 15.0 14.7 100 0.0 2.9 349 7.6 0
05:00 - 05:30 14.7 14.8 14.5 100 0.0 2.2 0 7.2 0
05:30 - 06:00 14.7 14.8 14.5 100 0.0 2.9 352 5.4 6
06:00 - 06:30 15.0 15.2 14.8 99 0.0 4.0 13 9.4 57
06:30 - 07:00 15.7 16.0 15.2 96 0.0 4.0 7 9.0 128
07:00 - 07:30 16.2 16.9 16.0 92 0.0 6.8 10 12.6 223
07:30 - 08:00 17.5 18.4 16.8 87 0.0 6.1 19 11.2 332
08:00 - 08:30 19.2 20.1 18.5 79 0.0 5.0 8 10.1 418
08:30 - 09:00 20.8 21.3 20.1 75 0.0 3.6 36 7.2 506
09:00 - 09:30 22.2 23.2 21.3 71 0.0 2.5 64 7.9 580
09:30 - 10:00 24.1 24.8 23.2 60 0.0 3.2 172 10.1 639
10:00 - 10:30 25.0 25.4 24.6 60 0.0 6.1 188 16.6 689
10:30 - 11:00 25.3 25.6 25.0 55 0.0 7.2 202 14.0 725
11:00 - 11:30 25.9 26.4 25.5 57 0.0 7.2 201 16.6 746
11:30 - 12:00 26.6 27.1 26.3 51 0.0 7.9 191 18.7 752
12:00 - 12:30 26.8 27.3 26.6 51 0.0 8.3 188 18.4 743
12:30 - 13:00 27.2 27.5 26.9 52 0.0 9.0 200 22.0 729
13:00 - 13:30 27.3 27.7 27.1 51 0.0 9.7 206 23.8 705
13:30 - 14:00 27.3 28.3 26.2 50 0.0 9.4 210 18.4 624
14:00 - 14:30 27.6 28.1 27.1 49 0.0 8.6 205 17.6 630
14:30 - 15:00 26.9 28.2 26.3 49 0.0 8.6 197 19.4 383
15:00 - 15:30 26.0 26.8 25.4 52 0.0 10.4 199 21.6 357
15:30 - 16:00 25.0 25.8 24.0 59 0.0 11.5 201 25.2 328
16:00 - 16:30 24.3 24.6 24.0 66 0.0 11.5 205 22.0 252
16:30 - 17:00 23.2 23.8 22.8 73 0.0 9.0 200 20.9 89
17:00 - 17:30 22.8 23.0 22.6 73 0.0 7.6 201 19.4 56
17:30 - 18:00 21.9 22.6 21.0 78 0.0 4.0 176 13.7 4
18:00 - 18:30 20.5 21.0 20.0 85 0.0 2.5 161 7.2 0
18:30 - 19:00 19.7 20.0 19.3 90 0.0 1.8 166 4.3 0
19:00 - 19:30 18.8 19.2 18.3 94 0.0 1.4 118 5.0 0
19:30 - 20:00 18.4 18.7 18.0 95 0.0 0.7 301 2.9 0
20:00 - 20:30 18.4 18.9 17.9 96 0.0 1.1 266 3.6 0
20:30 - 21:00 17.4 17.8 17.1 99 0.0 0.4 330 2.9 0
21:00 - 21:30 17.9 18.3 17.3 99 0.0 1.4 230 2.9 0
21:30 - 22:00 (s/d) (s/d) (s/d) (s/d) (s/d) (s/d) (s/d) (s/d) (s/d)

Les dades en taronja només han passat un control de qualitat automàtic. Resta pendent la seva validació definitiva.